createdAt,value
2022-11-12T00:00:20.867Z,18.34
2022-11-12T00:00:52.271Z,18.33
2022-11-12T00:01:23.683Z,18.34
2022-11-12T00:01:55.131Z,18.33
2022-11-12T00:02:26.706Z,18.33
2022-11-12T00:02:58.174Z,18.32
2022-11-12T00:03:29.560Z,18.33
2022-11-12T00:04:01.032Z,18.32
2022-11-12T00:04:32.423Z,18.32
2022-11-12T00:05:03.835Z,18.30
2022-11-12T00:05:35.221Z,18.31
2022-11-12T00:06:06.613Z,18.30
2022-11-12T00:06:38.059Z,18.29
2022-11-12T00:07:09.570Z,18.30
2022-11-12T00:07:41.115Z,18.30
2022-11-12T00:08:12.503Z,18.30
2022-11-12T00:08:43.891Z,18.28
2022-11-12T00:09:15.280Z,18.29
2022-11-12T00:09:46.666Z,18.28
2022-11-12T00:10:18.067Z,18.27
2022-11-12T00:10:49.570Z,18.26
2022-11-12T00:11:20.977Z,18.27
2022-11-12T00:11:52.378Z,18.28
2022-11-12T00:12:23.791Z,18.27
2022-11-12T00:12:55.406Z,18.28
2022-11-12T00:13:26.797Z,18.27
2022-11-12T00:13:58.210Z,18.27
2022-11-12T00:14:29.600Z,18.27
2022-11-12T00:15:01.306Z,18.27
2022-11-12T00:15:32.715Z,18.27
2022-11-12T00:16:04.212Z,18.26
2022-11-12T00:16:35.599Z,18.26
2022-11-12T00:17:06.984Z,18.27
2022-11-12T00:17:38.371Z,18.26
2022-11-12T00:18:09.863Z,18.26
2022-11-12T00:18:41.256Z,18.25
2022-11-12T00:19:12.643Z,18.25
2022-11-12T00:19:44.035Z,18.25
2022-11-12T00:20:15.442Z,18.25
2022-11-12T00:20:46.844Z,18.25
2022-11-12T00:21:18.236Z,18.24
2022-11-12T00:21:49.645Z,18.24
2022-11-12T00:22:21.060Z,18.24
2022-11-12T00:22:52.458Z,18.24
2022-11-12T00:23:24.027Z,18.25
2022-11-12T00:23:55.416Z,18.23
2022-11-12T00:24:26.812Z,18.23
2022-11-12T00:24:58.199Z,18.24
2022-11-12T00:25:29.590Z,18.23
2022-11-12T00:26:01.001Z,18.23
2022-11-12T00:26:32.400Z,18.23
2022-11-12T00:27:03.809Z,18.22
2022-11-12T00:27:35.201Z,18.23
2022-11-12T00:28:06.616Z,18.22
2022-11-12T00:28:38.672Z,18.21
2022-11-12T00:29:10.184Z,18.20
2022-11-12T00:29:41.615Z,18.20
2022-11-12T00:30:13.023Z,18.20
2022-11-12T00:30:44.427Z,18.19
2022-11-12T00:31:15.821Z,18.19
2022-11-12T00:31:47.235Z,18.17
2022-11-12T00:32:18.660Z,18.19
2022-11-12T00:32:50.059Z,18.19
2022-11-12T00:33:21.441Z,18.18
2022-11-12T00:33:52.839Z,18.18
2022-11-12T00:34:24.235Z,18.18
2022-11-12T00:34:55.639Z,18.17
2022-11-12T00:35:27.043Z,18.18
2022-11-12T00:35:58.441Z,18.16
2022-11-12T00:36:29.833Z,18.18
2022-11-12T00:37:01.223Z,18.18
2022-11-12T00:37:32.631Z,18.17
2022-11-12T00:38:04.027Z,18.17
2022-11-12T00:38:35.415Z,18.16
2022-11-12T00:39:06.903Z,18.17
2022-11-12T00:39:38.291Z,18.16
2022-11-12T00:40:09.693Z,18.16
2022-11-12T00:40:41.083Z,18.16
2022-11-12T00:41:12.476Z,18.16
2022-11-12T00:41:43.895Z,18.15
2022-11-12T00:42:15.307Z,18.15
2022-11-12T00:42:46.702Z,18.15
2022-11-12T00:43:18.120Z,18.14
2022-11-12T00:43:49.633Z,18.15
2022-11-12T00:44:21.071Z,18.15
2022-11-12T00:44:52.458Z,18.16
2022-11-12T00:45:23.859Z,18.15
2022-11-12T00:45:55.267Z,18.15
2022-11-12T00:46:26.681Z,18.15
2022-11-12T00:46:58.076Z,18.14
2022-11-12T00:47:29.468Z,18.14
2022-11-12T00:48:00.871Z,18.14
2022-11-12T00:48:32.278Z,18.14
2022-11-12T00:49:03.796Z,18.14
2022-11-12T00:49:35.192Z,18.14
2022-11-12T00:50:06.573Z,18.14
2022-11-12T00:50:38.006Z,18.14
2022-11-12T00:51:09.388Z,18.14
2022-11-12T00:51:40.775Z,18.13
2022-11-12T00:52:12.227Z,18.12
2022-11-12T00:52:43.636Z,18.12
2022-11-12T00:53:15.038Z,18.11
2022-11-12T00:53:46.432Z,18.13
2022-11-12T00:54:17.950Z,18.11
2022-11-12T00:54:49.340Z,18.11
2022-11-12T00:55:20.768Z,18.11
2022-11-12T00:55:52.179Z,18.12
2022-11-12T00:56:23.606Z,18.11
2022-11-12T00:56:54.999Z,18.12
2022-11-12T00:57:26.382Z,18.10
2022-11-12T00:57:57.775Z,18.09
2022-11-12T00:58:29.167Z,18.10
2022-11-12T00:59:00.569Z,18.09
2022-11-12T00:59:32.038Z,18.09
2022-11-12T01:00:03.421Z,18.08
2022-11-12T01:00:34.831Z,18.08
2022-11-12T01:01:06.241Z,18.07
2022-11-12T01:01:37.650Z,18.07
2022-11-12T01:02:09.041Z,18.08
2022-11-12T01:02:45.318Z,18.06
2022-11-12T01:03:19.210Z,18.04
2022-11-12T01:03:50.627Z,18.05
2022-11-12T01:04:22.036Z,18.05
2022-11-12T01:04:53.564Z,18.03
2022-11-12T01:05:24.950Z,18.02
2022-11-12T01:05:56.342Z,18.03
2022-11-12T01:06:27.751Z,18.03
2022-11-12T01:06:59.261Z,18.03
2022-11-12T01:07:30.695Z,18.03
2022-11-12T01:08:02.078Z,18.02
2022-11-12T01:08:33.478Z,18.02
2022-11-12T01:09:04.862Z,18.03
2022-11-12T01:09:36.248Z,18.02
2022-11-12T01:10:07.676Z,18.01
2022-11-12T01:10:39.068Z,18.01
2022-11-12T01:11:10.466Z,18.00
2022-11-12T01:11:41.874Z,18.01
2022-11-12T01:12:13.269Z,18.00
2022-11-12T01:12:44.677Z,17.98
2022-11-12T01:13:16.070Z,17.99
2022-11-12T01:13:47.461Z,17.99
2022-11-12T01:14:18.865Z,18.00
2022-11-12T01:14:50.269Z,17.99
2022-11-12T01:15:21.766Z,17.99
2022-11-12T01:15:53.154Z,18.00
2022-11-12T01:16:24.552Z,17.99
2022-11-12T01:16:55.939Z,17.99
2022-11-12T01:17:27.323Z,17.99
2022-11-12T01:17:58.711Z,18.00
2022-11-12T01:18:30.105Z,17.99
2022-11-12T01:19:01.500Z,17.99
2022-11-12T01:19:32.899Z,17.99
2022-11-12T01:20:04.304Z,17.97
2022-11-12T01:20:35.843Z,17.97
2022-11-12T01:21:07.242Z,17.97
2022-11-12T01:21:38.757Z,17.97
2022-11-12T01:22:10.162Z,17.96
2022-11-12T01:22:41.575Z,17.97
2022-11-12T01:23:12.992Z,17.96
2022-11-12T01:23:44.388Z,17.97
2022-11-12T01:24:15.780Z,17.97
2022-11-12T01:24:47.192Z,17.97
2022-11-12T01:25:18.586Z,17.97
2022-11-12T01:25:50.096Z,17.98
2022-11-12T01:26:21.488Z,17.97
2022-11-12T01:26:52.886Z,17.97
2022-11-12T01:27:24.275Z,17.96
2022-11-12T01:27:55.663Z,17.96
2022-11-12T01:28:27.273Z,17.96
2022-11-12T01:28:58.879Z,17.96
2022-11-12T01:29:30.269Z,17.96
2022-11-12T01:30:01.845Z,17.95
2022-11-12T01:30:33.298Z,17.96
2022-11-12T01:31:04.980Z,17.95
2022-11-12T01:31:36.384Z,17.96
2022-11-12T01:32:07.770Z,17.96
2022-11-12T01:32:39.159Z,17.95
2022-11-12T01:33:10.566Z,17.95
2022-11-12T01:33:41.973Z,17.95
2022-11-12T01:34:13.374Z,17.95
2022-11-12T01:34:44.768Z,17.95
2022-11-12T01:35:16.164Z,17.95
2022-11-12T01:35:47.599Z,17.95
2022-11-12T01:36:19.047Z,17.96
2022-11-12T01:36:50.512Z,17.96
2022-11-12T01:37:21.899Z,17.96
2022-11-12T01:37:53.307Z,17.96
2022-11-12T01:38:24.979Z,17.94
2022-11-12T01:38:56.580Z,17.95
2022-11-12T01:39:27.988Z,17.95
2022-11-12T01:39:59.367Z,17.96
2022-11-12T01:40:30.755Z,17.94
2022-11-12T01:41:02.151Z,17.94
2022-11-12T01:41:33.627Z,17.94
2022-11-12T01:42:05.010Z,17.95
2022-11-12T01:42:36.399Z,17.94
2022-11-12T01:43:07.813Z,17.93
2022-11-12T01:43:39.214Z,17.93
2022-11-12T01:44:10.664Z,17.94
2022-11-12T01:44:42.075Z,17.92
2022-11-12T01:45:13.481Z,17.91
2022-11-12T01:45:44.872Z,17.92
2022-11-12T01:46:16.347Z,17.91
2022-11-12T01:46:47.731Z,17.92
2022-11-12T01:47:19.124Z,17.91
2022-11-12T01:47:50.525Z,17.91
2022-11-12T01:48:21.917Z,17.91
2022-11-12T01:48:53.380Z,17.89
2022-11-12T01:49:24.767Z,17.90
2022-11-12T01:49:57.318Z,17.90
2022-11-12T01:50:28.873Z,17.89
2022-11-12T01:51:00.262Z,17.89
2022-11-12T01:51:31.717Z,17.90
2022-11-12T01:52:03.130Z,17.88
2022-11-12T01:52:34.535Z,17.88
2022-11-12T01:53:05.935Z,17.87
2022-11-12T01:53:37.330Z,17.86
2022-11-12T01:54:08.727Z,17.87
2022-11-12T01:54:40.192Z,17.86
2022-11-12T01:55:11.602Z,17.86
2022-11-12T01:55:43.008Z,17.85
2022-11-12T01:56:14.399Z,17.85
2022-11-12T01:56:45.903Z,17.85
2022-11-12T01:57:17.301Z,17.84
2022-11-12T01:57:48.711Z,17.84
2022-11-12T01:58:20.103Z,17.84
2022-11-12T01:58:51.511Z,17.84
2022-11-12T01:59:22.905Z,17.83
2022-11-12T01:59:54.316Z,17.84
2022-11-12T02:00:25.697Z,17.83
2022-11-12T02:00:57.109Z,17.83
2022-11-12T02:01:28.759Z,17.84
2022-11-12T02:02:00.160Z,17.84
2022-11-12T02:02:31.565Z,17.82
2022-11-12T02:03:02.983Z,17.82
2022-11-12T02:03:34.386Z,17.82
2022-11-12T02:04:05.771Z,17.82
2022-11-12T02:04:37.180Z,17.83
2022-11-12T02:05:08.580Z,17.82
2022-11-12T02:05:40.000Z,17.82
2022-11-12T02:06:11.395Z,17.81
2022-11-12T02:06:42.980Z,17.81
2022-11-12T02:07:14.457Z,17.81
2022-11-12T02:07:45.930Z,17.81
2022-11-12T02:08:17.315Z,17.80
2022-11-12T02:08:48.698Z,17.78
2022-11-12T02:09:20.087Z,17.80
2022-11-12T02:09:51.484Z,17.81
2022-11-12T02:10:22.868Z,17.81
2022-11-12T02:10:54.252Z,17.80
2022-11-12T02:11:25.660Z,17.81
2022-11-12T02:11:57.157Z,17.81
2022-11-12T02:12:28.639Z,17.81
2022-11-12T02:13:00.045Z,17.81
2022-11-12T02:13:31.434Z,17.81
2022-11-12T02:14:02.822Z,17.81
2022-11-12T02:14:34.222Z,17.79
2022-11-12T02:15:05.610Z,17.78
2022-11-12T02:15:37.062Z,17.80
2022-11-12T02:16:08.460Z,17.80
2022-11-12T02:16:39.845Z,17.78
2022-11-12T02:17:11.300Z,17.81
2022-11-12T02:17:42.692Z,17.79
2022-11-12T02:18:14.103Z,17.79
2022-11-12T02:18:45.506Z,17.78
2022-11-12T02:19:16.894Z,17.78
2022-11-12T02:19:48.285Z,17.77
2022-11-12T02:20:19.671Z,17.77
2022-11-12T02:20:51.065Z,17.78
2022-11-12T02:21:22.455Z,17.77
2022-11-12T02:21:53.855Z,17.78
2022-11-12T02:22:25.356Z,17.78
2022-11-12T02:22:56.744Z,17.77
2022-11-12T02:23:28.135Z,17.77
2022-11-12T02:23:59.544Z,17.77
2022-11-12T02:24:30.930Z,17.77
2022-11-12T02:25:02.322Z,17.75
2022-11-12T02:25:33.715Z,17.76
2022-11-12T02:26:05.122Z,17.74
2022-11-12T02:26:36.516Z,17.74
2022-11-12T02:27:07.904Z,17.74
2022-11-12T02:27:39.414Z,17.74
2022-11-12T02:28:10.810Z,17.73
2022-11-12T02:28:42.199Z,17.74
2022-11-12T02:29:13.592Z,17.74
2022-11-12T02:29:45.014Z,17.72
2022-11-12T02:30:16.445Z,17.73
2022-11-12T02:30:47.865Z,17.73
2022-11-12T02:31:19.251Z,17.72
2022-11-12T02:31:50.639Z,17.72
2022-11-12T02:32:22.031Z,17.73
2022-11-12T02:32:53.484Z,17.72
2022-11-12T02:33:24.897Z,17.72
2022-11-12T02:33:56.301Z,17.72
2022-11-12T02:34:27.700Z,17.71
2022-11-12T02:34:59.088Z,17.71
2022-11-12T02:35:30.497Z,17.71
2022-11-12T02:36:01.903Z,17.71
2022-11-12T02:36:33.301Z,17.71
2022-11-12T02:37:04.687Z,17.71
2022-11-12T02:37:36.087Z,17.70
2022-11-12T02:38:07.540Z,17.69
2022-11-12T02:38:38.935Z,17.69
2022-11-12T02:39:10.350Z,17.69
2022-11-12T02:39:41.778Z,17.69
2022-11-12T02:40:13.164Z,17.68
2022-11-12T02:40:44.562Z,17.68
2022-11-12T02:41:15.954Z,17.69
2022-11-12T02:41:47.368Z,17.67
2022-11-12T02:42:18.755Z,17.67
2022-11-12T02:42:50.144Z,17.66
2022-11-12T02:43:21.584Z,17.66
2022-11-12T02:43:52.983Z,17.66
2022-11-12T02:44:24.381Z,17.66
2022-11-12T02:44:55.793Z,17.65
2022-11-12T02:45:27.199Z,17.65
2022-11-12T02:45:58.595Z,17.66
2022-11-12T02:46:30.004Z,17.65
2022-11-12T02:47:01.386Z,17.64
2022-11-12T02:47:32.782Z,17.65
2022-11-12T02:48:04.241Z,17.65
2022-11-12T02:48:35.750Z,17.62
2022-11-12T02:49:07.130Z,17.63
2022-11-12T02:49:38.515Z,17.63
2022-11-12T02:50:09.893Z,17.62
2022-11-12T02:50:41.283Z,17.62
2022-11-12T02:51:12.674Z,17.62
2022-11-12T02:51:44.078Z,17.62
2022-11-12T02:52:15.479Z,17.63
2022-11-12T02:52:46.889Z,17.63
2022-11-12T02:53:18.284Z,17.61
2022-11-12T02:53:49.718Z,17.62
2022-11-12T02:54:21.112Z,17.61
2022-11-12T02:54:52.527Z,17.61
2022-11-12T02:55:23.920Z,17.60
2022-11-12T02:55:55.319Z,17.60
2022-11-12T02:56:26.717Z,17.60
2022-11-12T02:56:58.102Z,17.60
2022-11-12T02:57:29.488Z,17.60
2022-11-12T02:58:00.891Z,17.59
2022-11-12T02:58:32.274Z,17.59
2022-11-12T02:59:03.770Z,17.60
2022-11-12T02:59:35.174Z,17.60
2022-11-12T03:00:06.582Z,17.58
2022-11-12T03:00:38.065Z,17.58
2022-11-12T03:01:09.637Z,17.58
2022-11-12T03:01:41.146Z,17.59
2022-11-12T03:02:12.540Z,17.58
2022-11-12T03:02:43.951Z,17.58
2022-11-12T03:03:15.330Z,17.57
2022-11-12T03:03:46.741Z,17.57
2022-11-12T03:04:18.251Z,17.57
2022-11-12T03:04:49.858Z,17.57
2022-11-12T03:05:21.293Z,17.56
2022-11-12T03:05:52.678Z,17.57
2022-11-12T03:06:24.071Z,17.57
2022-11-12T03:06:55.494Z,17.56
2022-11-12T03:07:26.930Z,17.55
2022-11-12T03:07:58.330Z,17.55
2022-11-12T03:08:29.910Z,17.54
2022-11-12T03:09:01.402Z,17.55
2022-11-12T03:09:32.812Z,17.55
2022-11-12T03:10:04.204Z,17.55
2022-11-12T03:10:35.609Z,17.54
2022-11-12T03:11:07.016Z,17.55
2022-11-12T03:11:38.409Z,17.55
2022-11-12T03:12:09.820Z,17.55
2022-11-12T03:12:41.220Z,17.56
2022-11-12T03:13:12.604Z,17.54
2022-11-12T03:13:44.009Z,17.54
2022-11-12T03:14:15.394Z,17.54
2022-11-12T03:14:46.815Z,17.54
2022-11-12T03:15:18.216Z,17.54
2022-11-12T03:15:49.625Z,17.53
2022-11-12T03:16:21.028Z,17.54
2022-11-12T03:16:52.468Z,17.54
2022-11-12T03:17:23.858Z,17.54
2022-11-12T03:17:55.243Z,17.54
2022-11-12T03:18:26.877Z,17.54
2022-11-12T03:18:58.534Z,17.54
2022-11-12T03:19:29.928Z,17.53
2022-11-12T03:20:01.461Z,17.53
2022-11-12T03:20:32.856Z,17.53
2022-11-12T03:21:04.242Z,17.52
2022-11-12T03:21:35.632Z,17.53
2022-11-12T03:22:07.100Z,17.52
2022-11-12T03:22:38.487Z,17.53
2022-11-12T03:23:09.935Z,17.52
2022-11-12T03:23:41.320Z,17.53
2022-11-12T03:24:12.703Z,17.52
2022-11-12T03:24:44.095Z,17.51
2022-11-12T03:25:15.550Z,17.49
2022-11-12T03:25:46.944Z,17.50
2022-11-12T03:26:18.335Z,17.50
2022-11-12T03:26:49.752Z,17.49
2022-11-12T03:27:21.145Z,17.49
2022-11-12T03:27:52.535Z,17.49
2022-11-12T03:28:24.186Z,17.50
2022-11-12T03:28:55.895Z,17.48
2022-11-12T03:29:27.358Z,17.50
2022-11-12T03:29:58.766Z,17.48
2022-11-12T03:30:30.288Z,17.47
2022-11-12T03:31:01.827Z,17.48
2022-11-12T03:31:33.234Z,17.48
2022-11-12T03:32:04.626Z,17.47
2022-11-12T03:32:36.068Z,17.47
2022-11-12T03:33:07.458Z,17.47
2022-11-12T03:33:38.918Z,17.46
2022-11-12T03:34:10.310Z,17.46
2022-11-12T03:34:41.710Z,17.47
2022-11-12T03:35:13.114Z,17.46
2022-11-12T03:35:44.655Z,17.45
2022-11-12T03:36:16.045Z,17.45
2022-11-12T03:36:47.436Z,17.45
2022-11-12T03:37:18.818Z,17.44
2022-11-12T03:37:50.213Z,17.45
2022-11-12T03:38:21.616Z,17.43
2022-11-12T03:38:53.007Z,17.43
2022-11-12T03:39:24.404Z,17.42
2022-11-12T03:39:55.806Z,17.42
2022-11-12T03:40:27.208Z,17.43
2022-11-12T03:40:58.620Z,17.42
2022-11-12T03:41:30.035Z,17.42
2022-11-12T03:42:01.424Z,17.42
2022-11-12T03:42:32.819Z,17.42
2022-11-12T03:43:04.226Z,17.41
2022-11-12T03:43:35.614Z,17.40
2022-11-12T03:44:06.994Z,17.41
2022-11-12T03:44:38.379Z,17.40
2022-11-12T03:45:09.789Z,17.40
2022-11-12T03:45:41.177Z,17.40
2022-11-12T03:46:12.670Z,17.39
2022-11-12T03:46:44.446Z,17.40
2022-11-12T03:47:16.018Z,17.40
2022-11-12T03:47:47.415Z,17.41
2022-11-12T03:48:18.818Z,17.40
2022-11-12T03:48:50.224Z,17.40
2022-11-12T03:49:21.616Z,17.39
2022-11-12T03:49:53.007Z,17.39
2022-11-12T03:50:24.396Z,17.38
2022-11-12T03:50:55.787Z,17.38
2022-11-12T03:51:27.235Z,17.38
2022-11-12T03:51:58.618Z,17.37
2022-11-12T03:52:30.013Z,17.38
2022-11-12T03:53:01.412Z,17.37
2022-11-12T03:53:32.800Z,17.36
2022-11-12T03:54:04.184Z,17.37
2022-11-12T03:54:35.587Z,17.36
2022-11-12T03:55:06.972Z,17.35
2022-11-12T03:55:38.391Z,17.36
2022-11-12T03:56:09.809Z,17.34
2022-11-12T03:56:41.299Z,17.34
2022-11-12T03:57:12.691Z,17.34
2022-11-12T03:57:44.113Z,17.34
2022-11-12T03:58:15.542Z,17.35
2022-11-12T03:58:46.938Z,17.34
2022-11-12T03:59:18.327Z,17.33
2022-11-12T03:59:49.731Z,17.34
2022-11-12T04:00:21.115Z,17.34
2022-11-12T04:00:52.561Z,17.33
2022-11-12T04:01:24.167Z,17.33
2022-11-12T04:01:55.601Z,17.33
2022-11-12T04:02:26.999Z,17.33
2022-11-12T04:02:58.388Z,17.32
2022-11-12T04:03:29.781Z,17.32
2022-11-12T04:04:01.194Z,17.32
2022-11-12T04:04:32.586Z,17.31
2022-11-12T04:05:04.003Z,17.32
2022-11-12T04:05:35.416Z,17.32
2022-11-12T04:06:06.798Z,17.32
2022-11-12T04:06:38.302Z,17.31
2022-11-12T04:07:09.826Z,17.31
2022-11-12T04:07:41.295Z,17.30
2022-11-12T04:08:12.750Z,17.31
2022-11-12T04:08:44.698Z,17.30
2022-11-12T04:09:16.082Z,17.31
2022-11-12T04:09:47.474Z,17.31
2022-11-12T04:10:18.891Z,17.30
2022-11-12T04:10:50.279Z,17.31
2022-11-12T04:11:21.670Z,17.30
2022-11-12T04:11:53.165Z,17.30
2022-11-12T04:12:24.558Z,17.30
2022-11-12T04:12:55.950Z,17.29
2022-11-12T04:13:27.363Z,17.30
2022-11-12T04:13:58.751Z,17.28
2022-11-12T04:14:30.140Z,17.30
2022-11-12T04:15:01.536Z,17.29
2022-11-12T04:15:32.959Z,17.29
2022-11-12T04:16:04.357Z,17.28
2022-11-12T04:16:35.738Z,17.28
2022-11-12T04:17:07.191Z,17.28
2022-11-12T04:17:38.586Z,17.27
2022-11-12T04:18:10.002Z,17.28
2022-11-12T04:18:41.391Z,17.28
2022-11-12T04:19:12.803Z,17.28
2022-11-12T04:19:44.197Z,17.28
2022-11-12T04:20:15.607Z,17.27
2022-11-12T04:20:47.002Z,17.27
2022-11-12T04:21:18.399Z,17.27
2022-11-12T04:21:49.783Z,17.27
2022-11-12T04:22:21.387Z,17.26
2022-11-12T04:22:52.797Z,17.26
2022-11-12T04:23:24.195Z,17.27
2022-11-12T04:23:55.606Z,17.26
2022-11-12T04:24:27.010Z,17.26
2022-11-12T04:24:58.402Z,17.25
2022-11-12T04:25:29.791Z,17.24
2022-11-12T04:26:01.199Z,17.25
2022-11-12T04:26:32.590Z,17.24
2022-11-12T04:27:03.984Z,17.24
2022-11-12T04:27:35.456Z,17.24
2022-11-12T04:28:06.871Z,17.24
2022-11-12T04:28:38.258Z,17.24
2022-11-12T04:29:09.661Z,17.24
2022-11-12T04:29:41.063Z,17.23
2022-11-12T04:30:12.473Z,17.24
2022-11-12T04:30:43.876Z,17.23
2022-11-12T04:31:15.356Z,17.23
2022-11-12T04:31:46.744Z,17.23
2022-11-12T04:32:18.169Z,17.22
2022-11-12T04:32:49.611Z,17.22
2022-11-12T04:33:21.086Z,17.22
2022-11-12T04:33:52.485Z,17.22
2022-11-12T04:34:23.941Z,17.21
2022-11-12T04:34:55.412Z,17.20
2022-11-12T04:35:26.825Z,17.20
2022-11-12T04:35:58.241Z,17.21
2022-11-12T04:36:29.849Z,17.20
2022-11-12T04:37:01.239Z,17.20
2022-11-12T04:37:32.642Z,17.20
2022-11-12T04:38:04.082Z,17.20
2022-11-12T04:38:35.562Z,17.19
2022-11-12T04:39:06.951Z,17.18
2022-11-12T04:39:38.343Z,17.18
2022-11-12T04:40:09.760Z,17.17
2022-11-12T04:40:41.143Z,17.18
2022-11-12T04:41:12.547Z,17.17
2022-11-12T04:41:43.934Z,17.18
2022-11-12T04:42:15.323Z,17.18
2022-11-12T04:42:46.717Z,17.18
2022-11-12T04:43:18.112Z,17.17
2022-11-12T04:43:49.506Z,17.17
2022-11-12T04:44:20.919Z,17.16
2022-11-12T04:44:52.329Z,17.16
2022-11-12T04:45:23.735Z,17.15
2022-11-12T04:45:55.138Z,17.15
2022-11-12T04:46:26.528Z,17.16
2022-11-12T04:46:57.934Z,17.15
2022-11-12T04:47:29.319Z,17.16
2022-11-12T04:48:00.763Z,17.15
2022-11-12T04:48:32.148Z,17.15
2022-11-12T04:49:03.539Z,17.16
2022-11-12T04:49:34.931Z,17.14
2022-11-12T04:50:06.324Z,17.14
2022-11-12T04:50:37.732Z,17.14
2022-11-12T04:51:09.146Z,17.14
2022-11-12T04:51:40.533Z,17.14
2022-11-12T04:52:11.933Z,17.12
2022-11-12T04:52:43.317Z,17.14
2022-11-12T04:53:14.732Z,17.13
2022-11-12T04:53:46.148Z,17.14
2022-11-12T04:54:17.544Z,17.13
2022-11-12T04:54:48.934Z,17.14
2022-11-12T04:55:20.339Z,17.13
2022-11-12T04:55:51.739Z,17.13
2022-11-12T04:56:23.142Z,17.13
2022-11-12T04:56:54.547Z,17.12
2022-11-12T04:57:25.991Z,17.13
2022-11-12T04:58:00.548Z,17.12
2022-11-12T04:58:32.387Z,17.12
2022-11-12T04:59:03.774Z,17.12
2022-11-12T04:59:35.158Z,17.11
2022-11-12T05:00:06.552Z,17.12
2022-11-12T05:00:37.968Z,17.11
2022-11-12T05:01:09.389Z,17.11
2022-11-12T05:01:41.125Z,17.08
2022-11-12T05:02:12.594Z,17.09
2022-11-12T05:02:43.981Z,17.10
2022-11-12T05:03:15.386Z,17.10
2022-11-12T05:03:46.816Z,17.09
2022-11-12T05:04:18.209Z,17.09
2022-11-12T05:04:49.600Z,17.09
2022-11-12T05:05:20.991Z,17.10
2022-11-12T05:05:52.384Z,17.10
2022-11-12T05:06:23.776Z,17.09
2022-11-12T05:06:55.206Z,17.09
2022-11-12T05:07:26.678Z,17.08
2022-11-12T05:07:58.064Z,17.08
2022-11-12T05:08:29.495Z,17.08
2022-11-12T05:09:00.995Z,17.08
2022-11-12T05:09:32.392Z,17.07
2022-11-12T05:10:03.783Z,17.07
2022-11-12T05:10:35.171Z,17.08
2022-11-12T05:11:11.562Z,17.07
2022-11-12T05:11:44.135Z,17.06
2022-11-12T05:12:15.543Z,17.06
2022-11-12T05:12:46.944Z,17.06
2022-11-12T05:13:18.359Z,17.05
2022-11-12T05:13:49.758Z,17.05
2022-11-12T05:14:21.307Z,17.05
2022-11-12T05:14:52.696Z,17.05
2022-11-12T05:15:24.103Z,17.05
2022-11-12T05:15:55.488Z,17.05
2022-11-12T05:16:26.942Z,17.05
2022-11-12T05:16:58.335Z,17.05
2022-11-12T05:17:29.727Z,17.03
2022-11-12T05:18:01.120Z,17.03
2022-11-12T05:18:32.518Z,17.04
2022-11-12T05:19:04.109Z,17.03
2022-11-12T05:19:35.667Z,17.03
2022-11-12T05:20:07.117Z,17.03
2022-11-12T05:20:38.531Z,17.04
2022-11-12T05:21:09.914Z,17.03
2022-11-12T05:21:43.638Z,17.02
2022-11-12T05:22:40.253Z,17.02
2022-11-12T05:23:07.594Z,17.02
2022-11-12T05:23:39.211Z,17.02
2022-11-12T05:24:22.475Z,17.01
2022-11-12T05:25:02.029Z,17.01
2022-11-12T05:25:33.423Z,17.01
2022-11-12T05:26:04.815Z,17.00
2022-11-12T05:26:36.227Z,17.01
2022-11-12T05:27:07.627Z,17.01
2022-11-12T05:27:39.022Z,17.00
2022-11-12T05:28:10.426Z,17.00
2022-11-12T05:28:41.841Z,16.99
2022-11-12T05:29:13.239Z,16.99
2022-11-12T05:29:44.626Z,17.00
2022-11-12T05:30:16.200Z,16.98
2022-11-12T05:30:47.589Z,16.99
2022-11-12T05:31:18.977Z,17.00
2022-11-12T05:31:50.361Z,16.99
2022-11-12T05:32:21.772Z,16.98
2022-11-12T05:32:53.195Z,17.00
2022-11-12T05:33:24.597Z,16.97
2022-11-12T05:33:55.984Z,16.98
2022-11-12T05:34:27.391Z,16.98
2022-11-12T05:34:58.811Z,16.98
2022-11-12T05:35:30.345Z,16.96
2022-11-12T05:36:01.732Z,16.97
2022-11-12T05:36:33.124Z,16.97
2022-11-12T05:37:04.520Z,16.98
2022-11-12T05:37:35.943Z,16.97
2022-11-12T05:38:07.332Z,16.97
2022-11-12T05:38:38.714Z,16.96
2022-11-12T05:39:10.112Z,16.96
2022-11-12T05:39:41.536Z,16.97
2022-11-12T05:40:12.936Z,16.96
2022-11-12T05:40:44.343Z,16.96
2022-11-12T05:41:19.918Z,16.96
2022-11-12T05:42:11.979Z,16.94
2022-11-12T05:42:43.270Z,16.95
2022-11-12T05:43:14.679Z,16.96
2022-11-12T05:43:46.087Z,16.95
2022-11-12T05:44:17.473Z,16.94
2022-11-12T05:44:48.868Z,16.93
2022-11-12T05:45:20.268Z,16.93
2022-11-12T05:45:51.829Z,16.92
2022-11-12T05:46:23.224Z,16.93
2022-11-12T05:46:54.627Z,16.94
2022-11-12T05:47:26.115Z,16.92
2022-11-12T05:47:57.503Z,16.92
2022-11-12T05:48:29.306Z,16.91
2022-11-12T05:49:00.992Z,16.92
2022-11-12T05:49:32.480Z,16.91
2022-11-12T05:50:03.880Z,16.90
2022-11-12T05:50:51.311Z,16.90
2022-11-12T05:51:26.751Z,16.90
2022-11-12T05:51:58.138Z,16.90
2022-11-12T05:52:29.543Z,16.91
2022-11-12T05:53:00.945Z,16.90
2022-11-12T05:53:32.339Z,16.90
2022-11-12T05:54:03.747Z,16.90
2022-11-12T05:54:35.141Z,16.90
2022-11-12T05:55:06.536Z,16.91
2022-11-12T05:55:37.932Z,16.90
2022-11-12T05:56:09.342Z,16.89
2022-11-12T05:56:40.774Z,16.90
2022-11-12T05:57:12.170Z,16.89
2022-11-12T05:57:43.630Z,16.90
2022-11-12T05:58:15.042Z,16.90
2022-11-12T05:58:46.427Z,16.89
2022-11-12T05:59:17.821Z,16.89
2022-11-12T05:59:49.214Z,16.89
2022-11-12T06:00:20.602Z,16.89
2022-11-12T06:00:51.995Z,16.90
2022-11-12T06:01:23.387Z,16.89
2022-11-12T06:01:54.872Z,16.89
2022-11-12T06:02:26.310Z,16.88
2022-11-12T06:02:57.772Z,16.88
2022-11-12T06:03:29.286Z,16.89
2022-11-12T06:04:00.707Z,16.89
2022-11-12T06:04:32.119Z,16.88
2022-11-12T06:05:03.507Z,16.88
2022-11-12T06:05:34.895Z,16.88
2022-11-12T06:06:06.342Z,16.88
2022-11-12T06:06:37.761Z,16.88
2022-11-12T06:07:09.264Z,16.88
2022-11-12T06:07:40.677Z,16.88
2022-11-12T06:08:12.067Z,16.87
2022-11-12T06:08:43.464Z,16.87
2022-11-12T06:09:14.866Z,16.87
2022-11-12T06:09:46.260Z,16.88
2022-11-12T06:10:20.543Z,16.87
2022-11-12T06:10:52.215Z,16.88
2022-11-12T06:11:23.627Z,16.87
2022-11-12T06:11:55.024Z,16.87
2022-11-12T06:12:26.470Z,16.87
2022-11-12T06:12:57.887Z,16.87
2022-11-12T06:13:29.304Z,16.85
2022-11-12T06:14:00.708Z,16.85
2022-11-12T06:14:32.150Z,16.84
2022-11-12T06:15:03.558Z,16.85
2022-11-12T06:15:39.099Z,16.85
2022-11-12T06:16:10.859Z,16.84
2022-11-12T06:16:42.248Z,16.84
2022-11-12T06:17:13.676Z,16.84
2022-11-12T06:17:45.090Z,16.83
2022-11-12T06:18:16.482Z,16.84
2022-11-12T06:18:47.891Z,16.86
2022-11-12T06:19:19.278Z,16.84
2022-11-12T06:19:50.671Z,16.83
2022-11-12T06:20:22.059Z,16.83
2022-11-12T06:20:53.532Z,16.83
2022-11-12T06:21:24.929Z,16.84
2022-11-12T06:21:56.323Z,16.84
2022-11-12T06:22:27.841Z,16.83
2022-11-12T06:22:59.302Z,16.83
2022-11-12T06:23:30.722Z,16.83
2022-11-12T06:24:02.134Z,16.83
2022-11-12T06:24:35.387Z,16.82
2022-11-12T06:25:06.990Z,16.83
2022-11-12T06:25:38.498Z,16.82
2022-11-12T06:26:09.905Z,16.82
2022-11-12T06:26:41.306Z,16.83
2022-11-12T06:27:12.699Z,16.82
2022-11-12T06:27:44.095Z,16.81
2022-11-12T06:28:15.687Z,16.82
2022-11-12T06:28:47.225Z,16.80
2022-11-12T06:29:18.638Z,16.81
2022-11-12T06:29:50.029Z,16.81
2022-11-12T06:30:25.481Z,16.81
2022-11-12T06:30:57.267Z,16.81
2022-11-12T06:31:28.672Z,16.80
2022-11-12T06:32:00.082Z,16.80
2022-11-12T06:32:31.471Z,16.80
2022-11-12T06:33:02.861Z,16.80
2022-11-12T06:33:34.316Z,16.79
2022-11-12T06:34:05.711Z,16.80
2022-11-12T06:34:37.122Z,16.80
2022-11-12T06:35:08.516Z,16.79
2022-11-12T06:35:42.947Z,16.81
2022-11-12T06:36:14.612Z,16.80
2022-11-12T06:36:46.008Z,16.79
2022-11-12T06:37:17.395Z,16.79
2022-11-12T06:37:48.797Z,16.81
2022-11-12T06:38:20.189Z,16.80
2022-11-12T06:38:51.740Z,16.79
2022-11-12T06:39:23.130Z,16.80
2022-11-12T06:39:54.520Z,16.79
2022-11-12T06:40:25.907Z,16.80
2022-11-12T06:40:57.304Z,16.80
2022-11-12T06:41:28.698Z,16.80
2022-11-12T06:42:00.090Z,16.77
2022-11-12T06:42:31.479Z,16.79
2022-11-12T06:43:02.874Z,16.79
2022-11-12T06:43:34.293Z,16.79
2022-11-12T06:44:05.782Z,16.79
2022-11-12T06:44:37.190Z,16.80
2022-11-12T06:45:08.655Z,16.80
2022-11-12T06:45:40.040Z,16.78
2022-11-12T06:46:11.459Z,16.79
2022-11-12T06:46:42.873Z,16.79